Air Navigation Services of Czech Republic
Airport: LKTH Updated:  21.07.2024 01:06:38  UTC
 METAR LKTH 21.07. 01:00 RRC
METAR LKTH 210100Z AUTO VRB02KT CAVOK 15/12 Q1012=